Time;durP1;ratioP1;P1;durP2;ratioP2;P2;SDS_P1;SDS_P2;PMS_P1;PMS_P2;Temp;Humidity;BMP_temperature;BMP_pressure;BME280_temperature;BME280_humidity;BME280_pressure;Samples;Min_cycle;Max_cycle;Signal;HPM_P1;HPM_P2
2022/09/06 00:00:26;;;;;;;5.55;3.65;;;20.30;99.90;;;20.99;81.32;101518.88;5114288;28;20039;-66
2022/09/06 00:02:54;;;;;;;5.17;3.93;;;20.50;99.90;;;21.10;81.23;101514.00;5114094;28;20112;-66
2022/09/06 00:05:24;;;;;;;10.23;4.18;;;20.70;99.90;;;21.23;80.71;101526.09;5113975;28;20285;-66
2022/09/06 00:07:53;;;;;;;4.90;4.43;;;20.70;99.90;;;21.36;80.03;101535.44;5114237;28;20040;-66
2022/09/06 00:10:21;;;;;;;4.53;4.13;;;20.80;99.90;;;21.30;79.75;101491.72;5113906;28;20318;-65
2022/09/06 00:12:53;;;;;;;7.00;3.97;;;21.00;99.90;;;21.52;78.84;101503.41;5114081;28;20078;-66
2022/09/06 00:15:22;;;;;;;4.97;3.45;;;21.00;99.90;;;21.63;77.87;101513.75;5113854;28;20047;-66
2022/09/06 00:17:53;;;;;;;4.30;3.90;;;21.10;99.90;;;21.67;76.35;101520.78;5113964;28;20055;-66
2022/09/06 00:20:21;;;;;;;5.63;3.85;;;21.20;99.90;;;21.75;76.15;101522.22;5113873;28;20043;-66
2022/09/06 00:22:56;;;;;;;5.43;3.42;;;21.30;99.90;;;21.82;76.01;101513.00;5112615;28;20506;-66
2022/09/06 00:25:24;;;;;;;6.35;3.30;;;21.30;99.90;;;21.79;75.51;101513.09;5113958;28;20047;-66
2022/09/06 00:27:57;;;;;;;4.03;3.53;;;21.40;99.90;;;21.75;75.62;101495.28;5113771;28;20046;-66
2022/09/06 00:30:26;;;;;;;8.45;4.13;;;21.30;99.90;;;21.73;75.47;101480.13;5113550;28;20047;-66
2022/09/06 00:32:55;;;;;;;4.60;3.58;;;21.40;99.90;;;21.56;75.01;101499.66;5113616;28;20042;-65
2022/09/06 00:35:25;;;;;;;5.15;3.92;;;21.30;99.90;;;21.45;76.00;101491.13;5113762;28;20089;-65
2022/09/06 00:37:58;;;;;;;4.03;3.70;;;21.10;99.90;;;21.21;76.20;101481.31;5112341;28;20040;-65
2022/09/06 00:40:28;;;;;;;3.88;3.58;;;21.00;99.90;;;21.04;77.03;101470.31;5113555;28;20118;-66
2022/09/06 00:42:57;;;;;;;6.07;3.83;;;20.80;99.90;;;20.84;76.84;101449.50;5113444;28;20055;-65
2022/09/06 00:45:28;;;;;;;4.43;3.47;;;20.50;99.90;;;20.77;76.73;101447.97;5113433;28;20052;-65
2022/09/06 00:47:57;;;;;;;3.80;3.40;;;20.40;99.90;;;20.82;78.07;101442.44;5113362;28;20069;-65
2022/09/06 00:50:26;;;;;;;5.43;3.83;;;20.40;99.90;;;20.86;77.39;101417.16;5113596;28;20039;-65
2022/09/06 00:52:59;;;;;;;4.75;3.95;;;20.40;99.90;;;20.75;78.42;101405.94;5113342;28;20044;-65
2022/09/06 00:55:28;;;;;;;3.42;3.13;;;20.30;99.90;;;20.35;78.68;101375.16;5113445;28;20148;-64
2022/09/06 00:57:57;;;;;;;6.72;4.18;;;20.20;99.90;;;20.19;80.88;101395.44;5113272;28;20090;-65
2022/09/06 01:00:25;;;;;;;8.00;3.95;;;19.90;99.90;;;20.07;81.55;101387.81;5113094;28;20100;-65
2022/09/06 01:02:54;;;;;;;7.30;4.07;;;19.70;99.90;;;19.85;83.42;101394.84;5113082;28;20035;-65
2022/09/06 01:05:27;;;;;;;7.47;4.47;;;19.50;99.90;;;19.74;83.99;101378.22;5111102;28;20059;-65
2022/09/06 01:08:10;;;;;;;8.40;4.38;;;19.30;99.90;;;19.68;84.76;101362.31;5113001;28;20075;-65
2022/09/06 01:11:03;;;;;;;5.03;3.75;;;19.30;99.90;;;19.82;81.57;101346.63;5113007;28;20035;-65
2022/09/06 01:13:42;;;;;;;4.32;3.88;;;19.30;99.90;;;19.89;80.73;101353.53;5112994;28;20067;-65
2022/09/06 01:16:18;;;;;;;4.90;4.50;;;19.50;99.90;;;20.11;78.38;101338.38;5113021;28;20101;-64
2022/09/06 01:19:05;;;;;;;3.97;3.42;;;19.70;99.90;;;20.39;76.70;101339.19;5113022;28;20097;-64
2022/09/06 01:21:45;;;;;;;4.28;3.63;;;19.90;99.90;;;20.66;74.01;101343.50;5112818;28;20040;-65
2022/09/06 01:24:43;;;;;;;4.40;3.95;;;20.20;99.90;;;20.67;74.21;101323.75;5112861;28;20047;-65
2022/09/06 01:27:53;;;;;;;4.28;3.50;;;20.30;99.90;;;20.51;75.67;101327.09;5112941;28;20092;-65
2022/09/06 01:30:21;;;;;;;5.35;3.60;;;20.20;99.90;;;20.45;76.06;101336.25;5112871;28;20048;-65
2022/09/06 01:32:56;;;;;;;4.05;3.65;;;20.10;99.90;;;20.29;77.39;101336.88;5112807;28;20065;-65
2022/09/06 01:35:31;;;;;;;6.43;3.42;;;19.90;99.90;;;20.04;78.78;101335.97;5111742;28;20074;-65
2022/09/06 01:38:01;;;;;;;5.22;3.58;;;19.60;99.90;;;20.06;79.96;101336.81;5112642;28;20051;-65
2022/09/06 01:40:33;;;;;;;3.88;3.33;;;19.60;99.90;;;20.10;80.43;101330.38;5113017;28;20158;-65
2022/09/06 01:43:05;;;;;;;5.68;3.65;;;19.70;99.90;;;20.12;80.64;101329.41;5112728;28;20043;-66
2022/09/06 01:45:52;;;;;;;3.80;3.55;;;19.70;99.90;;;20.12;80.90;101324.03;5112803;28;20052;-65
2022/09/06 01:48:35;;;;;;;6.97;4.07;;;19.60;99.90;;;20.23;80.63;101313.78;5112699;28;20043;-66
2022/09/06 01:51:15;;;;;;;9.45;4.07;;;19.70;99.90;;;20.27;80.72;101318.13;5112775;28;20104;-66
2022/09/06 01:54:16;;;;;;;4.40;4.00;;;19.80;99.90;;;20.28;80.32;101300.22;5112492;28;20087;-65
2022/09/06 01:56:53;;;;;;;4.38;4.07;;;19.90;99.90;;;20.38;80.33;101315.06;5112599;28;20044;-65
2022/09/06 01:59:40;;;;;;;4.85;3.70;;;20.00;99.90;;;20.47;80.20;101329.03;5112705;28;20079;-65
2022/09/06 02:02:15;;;;;;;4.70;3.53;;;20.00;99.90;;;20.38;80.38;101323.97;5112676;28;20065;-65
2022/09/06 02:04:47;;;;;;;4.35;3.55;;;20.00;99.90;;;20.57;80.02;101327.75;5112515;28;20050;-66
2022/09/06 02:07:20;;;;;;;6.40;3.92;;;20.10;99.90;;;20.91;79.25;101343.44;5112551;28;20093;-65
2022/09/06 02:09:54;;;;;;;4.00;3.58;;;20.40;99.90;;;21.12;79.07;101344.41;5112612;28;20420;-66
2022/09/06 02:12:25;;;;;;;4.28;3.58;;;20.60;99.90;;;21.27;79.00;101343.81;5112346;28;20071;-65
2022/09/06 02:15:00;;;;;;;4.20;3.80;;;20.80;99.90;;;20.72;78.84;101218.72;5112501;28;20047;-65
2022/09/06 02:17:33;;;;;;;3.80;3.35;;;20.90;99.90;;;21.57;77.96;101345.22;5115283;28;20085;-65
2022/09/06 02:20:05;;;;;;;5.95;4.05;;;21.10;99.90;;;21.62;77.52;101337.84;5116181;28;20047;-66
2022/09/06 02:22:37;;;;;;;4.60;4.25;;;21.20;99.90;;;21.67;76.58;101349.28;5116113;28;20373;-65
2022/09/06 02:25:10;;;;;;;4.43;4.03;;;21.30;99.90;;;21.38;75.74;101344.25;5115958;28;20504;-66
2022/09/06 02:27:39;;;;;;;5.07;4.57;;;21.00;99.90;;;21.20;75.60;101347.69;5116097;27;20047;-66
2022/09/06 02:30:10;;;;;;;5.55;4.95;;;20.80;99.90;;;21.12;75.43;101339.03;5115997;28;20082;-66
2022/09/06 02:32:44;;;;;;;5.03;4.53;;;20.70;99.90;;;21.18;75.77;101353.13;5115939;28;20489;-66
2022/09/06 02:35:15;;;;;;;6.03;5.22;;;20.60;99.90;;;21.20;74.29;101323.47;5115828;28;20488;-66
2022/09/06 02:37:45;;;;;;;5.68;4.72;;;20.80;99.90;;;21.56;73.83;101354.25;5115846;28;20425;-66
2022/09/06 02:40:13;;;;;;;6.10;5.50;;;21.00;99.90;;;21.50;72.72;101349.97;5115774;28;20448;-66
2022/09/06 02:42:41;;;;;;;7.05;6.00;;;21.00;99.90;;;21.46;72.46;101351.09;5115637;28;20480;-66
2022/09/06 02:45:11;;;;;;;10.02;5.97;;;21.00;99.90;;;21.61;72.13;101360.31;5115788;28;20066;-66
2022/09/06 02:47:40;;;;;;;8.02;6.93;;;21.10;99.90;;;21.58;71.74;101367.66;5115881;28;20165;-66
2022/09/06 02:50:09;;;;;;;7.75;6.25;;;21.20;99.90;;;21.45;71.68;101368.16;5115541;28;20556;-67
2022/09/06 02:52:40;;;;;;;7.97;7.28;;;21.10;99.90;;;21.46;71.92;101369.94;5115586;28;20075;-66
2022/09/06 02:55:10;;;;;;;8.38;6.70;;;21.10;99.90;;;21.45;71.53;101352.00;5115511;28;20096;-66
2022/09/06 02:57:38;;;;;;;8.35;6.38;;;21.20;99.90;;;21.61;71.51;101371.09;5131631;27;20047;-66
2022/09/06 03:00:08;;;;;;;6.15;5.65;;;21.30;99.90;;;21.67;71.29;101376.22;5115350;28;20043;-66
2022/09/06 03:02:37;;;;;;;8.07;6.40;;;21.30;99.90;;;21.44;72.00;101373.63;5115203;28;20069;-66
2022/09/06 03:05:07;;;;;;;8.85;7.97;;;21.10;99.90;;;21.23;72.59;101361.91;5115743;28;20035;-66
2022/09/06 03:07:35;;;;;;;8.60;7.80;;;20.80;99.90;;;21.38;73.01;101380.13;5114214;28;20040;-66
2022/09/06 03:10:04;;;;;;;8.32;7.43;;;20.80;99.90;;;21.60;72.56;101387.31;5114140;28;20040;-66
2022/09/06 03:12:32;;;;;;;9.57;7.90;;;21.00;99.90;;;21.75;72.28;101398.34;5115163;28;20471;-65
2022/09/06 03:15:01;;;;;;;7.07;6.43;;;21.20;99.90;;;21.87;71.72;101413.13;5115103;28;20123;-66
2022/09/06 03:17:29;;;;;;;8.55;6.22;;;21.40;99.90;;;21.87;71.45;101405.06;5115262;28;20043;-66
2022/09/06 03:19:59;;;;;;;8.07;6.32;;;21.40;99.90;;;22.00;71.83;101417.94;5115122;28;20052;-66
2022/09/06 03:22:27;;;;;;;7.00;6.30;;;21.50;99.90;;;22.10;71.92;101419.31;5114877;28;20039;-66
2022/09/06 03:24:56;;;;;;;7.53;5.75;;;21.60;99.90;;;22.16;71.48;101410.94;5115379;28;20044;-66
2022/09/06 03:27:25;;;;;;;7.32;5.95;;;21.70;99.90;;;22.14;70.92;101404.72;5114389;28;20442;-66
2022/09/06 03:29:53;;;;;;;8.80;6.03;;;21.70;99.90;;;22.16;70.87;101416.31;5114699;28;20046;-66
2022/09/06 03:32:21;;;;;;;7.70;6.75;;;21.70;99.90;;;22.03;70.71;101417.78;5113596;28;20549;-66
2022/09/06 03:34:49;;;;;;;8.13;6.00;;;21.60;99.90;;;22.12;71.09;101417.41;5114741;28;20070;-66
2022/09/06 03:37:19;;;;;;;6.50;5.90;;;21.60;99.90;;;22.16;70.69;101419.00;5114713;28;20076;-66
2022/09/06 03:39:47;;;;;;;7.82;7.03;;;21.60;99.90;;;22.00;71.00;101404.47;5114794;28;20059;-66
2022/09/06 03:42:16;;;;;;;7.70;6.60;;;21.70;99.90;;;22.15;71.34;101419.09;5114432;28;20397;-66
2022/09/06 03:44:44;;;;;;;8.48;6.68;;;21.70;99.90;;;22.16;71.10;101410.94;5115006;28;20090;-66
2022/09/06 03:47:13;;;;;;;8.88;6.32;;;21.60;99.90;;;22.24;71.74;101408.78;5114613;28;20055;-66
2022/09/06 03:49:46;;;;;;;7.38;6.53;;;21.70;99.90;;;22.39;71.75;101418.03;5114815;28;20049;-66
2022/09/06 03:52:15;;;;;;;7.53;5.85;;;21.80;99.90;;;22.46;71.21;101451.84;5113102;28;20090;-66
2022/09/06 03:54:45;;;;;;;6.78;6.13;;;21.90;99.90;;;22.41;71.01;101427.78;5114223;28;20074;-66
2022/09/06 03:57:13;;;;;;;8.13;6.70;;;21.90;99.90;;;22.50;70.72;101426.50;5114507;28;20043;-66
2022/09/06 03:59:41;;;;;;;7.55;6.13;;;22.00;99.90;;;22.37;70.80;101392.94;5114660;28;20047;-66
2022/09/06 04:02:10;;;;;;;6.72;5.80;;;22.00;99.90;;;22.59;70.60;101430.66;5114200;28;20067;-66
2022/09/06 04:04:38;;;;;;;6.88;6.22;;;22.10;99.90;;;22.65;70.72;101425.84;5114069;28;20047;-66
2022/09/06 04:07:06;;;;;;;8.57;6.00;;;22.10;99.90;;;22.67;70.83;101433.84;5113987;28;20055;-66
2022/09/06 04:09:35;;;;;;;6.85;5.78;;;22.10;99.90;;;22.63;71.99;101426.88;5114254;28;20052;-66
2022/09/06 04:12:05;;;;;;;7.15;6.45;;;22.10;99.90;;;22.68;71.19;101433.81;5113957;28;20484;-66
2022/09/06 04:14:33;;;;;;;8.27;6.40;;;22.10;99.90;;;22.62;71.70;101417.03;5113855;28;20126;-66
2022/09/06 04:17:01;;;;;;;7.40;6.70;;;22.20;99.90;;;22.59;72.78;101444.16;5113888;28;20050;-66
2022/09/06 04:19:30;;;;;;;9.20;7.63;;;22.10;99.90;;;22.60;72.29;101443.19;5113730;28;20404;-66
2022/09/06 04:21:58;;;;;;;7.65;6.85;;;22.10;99.90;;;22.47;74.51;101453.63;5113724;28;20374;-66
2022/09/06 04:24:27;;;;;;;8.13;7.22;;;22.00;99.90;;;22.63;75.01;101448.47;5112607;28;20054;-66
2022/09/06 04:26:55;;;;;;;11.38;7.00;;;22.10;99.90;;;22.49;75.17;101426.59;5113744;28;20130;-66
2022/09/06 04:29:24;;;;;;;8.68;7.65;;;22.10;99.90;;;22.54;75.26;101440.72;5113992;28;20075;-66
2022/09/06 04:31:53;;;;;;;7.95;7.10;;;22.10;99.90;;;22.52;76.10;101445.31;5113598;28;20052;-66
2022/09/06 04:34:21;;;;;;;8.85;7.93;;;22.00;99.90;;;22.49;76.21;101440.06;5113527;28;20047;-66
2022/09/06 04:36:49;;;;;;;8.80;7.90;;;21.90;99.90;;;22.53;76.23;101439.00;5113593;28;20044;-66
2022/09/06 04:39:18;;;;;;;8.50;7.63;;;22.00;99.90;;;22.37;76.27;101420.78;5112924;28;20047;-66
2022/09/06 04:41:46;;;;;;;9.35;8.45;;;21.90;99.90;;;22.33;76.40;101424.56;5113145;28;20036;-66
2022/09/06 04:44:14;;;;;;;9.52;8.63;;;21.80;99.90;;;22.34;76.41;101426.31;5113394;28;20043;-66
2022/09/06 04:46:44;;;;;;;9.25;7.43;;;21.80;99.90;;;21.98;78.37;101410.84;5113297;28;20378;-66
2022/09/06 04:49:12;;;;;;;8.53;7.73;;;21.50;99.90;;;22.08;77.75;101418.50;5113293;28;20074;-65
2022/09/06 04:51:41;;;;;;;8.68;7.97;;;21.60;99.90;;;22.17;77.40;101407.31;5113321;27;20047;-66
2022/09/06 04:54:09;;;;;;;9.40;7.90;;;21.60;99.90;;;22.20;77.23;101409.00;5113403;28;20075;-66
2022/09/06 04:56:37;;;;;;;9.38;8.38;;;21.70;99.90;;;22.08;77.62;101396.94;5113176;28;20490;-66
2022/09/06 04:59:06;;;;;;;10.18;9.23;;;21.60;99.90;;;22.13;77.61;101396.72;5113174;28;20067;-66
2022/09/06 05:01:34;;;;;;;10.75;9.18;;;21.60;99.90;;;22.04;77.99;101389.03;5113157;28;20127;-66
2022/09/06 05:04:04;;;;;;;11.18;9.20;;;21.50;99.90;;;21.98;78.71;101395.56;5113013;28;20051;-66
2022/09/06 05:06:32;;;;;;;10.85;8.60;;;21.50;99.90;;;21.90;79.32;101384.25;5113445;28;20447;-66
2022/09/06 05:09:00;;;;;;;9.75;8.38;;;21.50;99.90;;;21.98;79.22;101397.38;5113086;28;20409;-66
2022/09/06 05:11:29;;;;;;;10.32;8.98;;;21.40;99.90;;;21.87;79.47;101384.38;5113088;28;20042;-66
2022/09/06 05:13:57;;;;;;;11.18;8.68;;;21.40;99.90;;;21.82;79.17;101383.69;5112950;28;20052;-66
2022/09/06 05:16:25;;;;;;;10.20;9.13;;;21.40;99.90;;;21.78;79.22;101382.03;5113160;28;20147;-66
2022/09/06 05:18:54;;;;;;;13.90;8.50;;;21.30;99.90;;;21.77;80.00;101379.41;5112925;28;20032;-66
2022/09/06 05:21:23;;;;;;;9.55;8.60;;;21.20;99.90;;;21.01;81.87;101349.34;5113055;28;20105;-66
2022/09/06 05:23:52;;;;;;;12.48;9.20;;;20.80;99.90;;;20.65;83.32;101370.47;5112800;28;20047;-66
2022/09/06 05:26:25;;;;;;;11.23;9.25;;;20.20;99.90;;;20.40;85.21;101375.84;5112771;28;20052;-66
2022/09/06 05:28:54;;;;;;;10.55;9.27;;;19.90;99.90;;;20.41;85.20;101371.38;5112770;28;20503;-66
2022/09/06 05:31:28;;;;;;;10.15;9.02;;;19.80;99.90;;;20.11;85.70;101370.63;5112897;28;20512;-66
2022/09/06 05:33:57;;;;;;;10.30;9.27;;;19.60;99.90;;;19.78;87.00;101366.44;5111618;28;20146;-66
2022/09/06 05:36:28;;;;;;;14.35;11.05;;;19.30;99.90;;;19.22;88.24;101324.50;5113119;28;20075;-66
2022/09/06 05:38:58;;;;;;;14.15;11.32;;;19.10;99.90;;;18.99;90.80;101357.38;5111856;28;20055;-66
2022/09/06 05:41:27;;;;;;;16.58;11.50;;;18.70;99.90;;;19.01;91.65;101355.53;5112672;28;20530;-66
2022/09/06 05:43:55;;;;;;;12.75;11.45;;;18.60;99.90;;;19.12;91.18;101363.25;5112922;28;20039;-66
2022/09/06 05:46:23;;;;;;;15.02;10.93;;;18.60;99.90;;;19.26;89.52;101340.41;5112454;28;20066;-66
2022/09/06 05:48:53;;;;;;;15.70;11.57;;;18.90;99.90;;;19.57;87.95;101346.56;5112912;28;20063;-65
2022/09/06 05:51:21;;;;;;;13.52;11.30;;;19.10;99.90;;;19.70;87.25;101350.56;5113809;28;20448;-66
2022/09/06 05:53:51;;;;;;;15.07;12.88;;;19.20;99.90;;;19.83;86.93;101350.16;5116660;28;20551;-66
2022/09/06 05:56:21;;;;;;;14.13;12.40;;;19.40;99.90;;;20.15;86.85;101363.34;5116773;27;20130;-66
2022/09/06 05:58:49;;;;;;;17.98;13.43;;;19.60;99.90;;;20.30;85.79;101360.13;5116469;28;20295;-65
2022/09/06 06:01:23;;;;;;;17.05;13.85;;;19.80;99.90;;;20.45;85.37;101359.56;5116424;28;20122;-65
2022/09/06 06:03:53;;;;;;;16.23;13.15;;;19.90;99.90;;;20.57;85.07;101356.44;5116271;28;20040;-65
2022/09/06 06:06:23;;;;;;;15.53;13.60;;;20.10;99.90;;;20.58;85.01;101345.63;5116348;28;20480;-66
2022/09/06 06:08:53;;;;;;;15.23;13.30;;;20.10;99.90;;;20.45;85.72;101347.03;5116556;28;20126;-66
2022/09/06 06:11:21;;;;;;;17.13;15.25;;;20.00;99.90;;;20.56;86.48;101343.91;5116441;28;20504;-66
2022/09/06 06:13:49;;;;;;;20.65;15.57;;;20.00;99.90;;;20.54;86.64;101338.59;5114958;28;20489;-66
2022/09/06 06:16:20;;;;;;;19.20;15.60;;;20.00;99.90;;;20.48;86.92;101336.13;5116030;28;20088;-66
2022/09/06 06:18:49;;;;;;;19.33;15.52;;;19.90;99.90;;;20.62;86.66;101333.81;5116380;28;20055;-66
2022/09/06 06:21:20;;;;;;;;;;;20.10;99.90;;;20.84;85.91;101332.97;5116731;28;20043;-66
2022/09/06 06:23:53;;;;;;;24.08;19.38;;;20.30;99.90;;;21.13;84.97;101332.72;5116153;28;20349;-66
2022/09/06 06:26:21;;;;;;;19.33;17.00;;;20.60;99.90;;;21.17;83.82;101332.56;5115981;28;20496;-66
2022/09/06 06:28:50;;;;;;;22.67;17.65;;;20.70;99.90;;;21.44;83.58;101330.53;5115880;28;20212;-66
2022/09/06 06:31:21;;;;;;;22.15;18.27;;;20.90;99.90;;;21.46;82.14;101332.22;5115839;28;20067;-66
2022/09/06 06:33:50;;;;;;;23.08;20.33;;;21.00;99.90;;;21.66;82.30;101325.13;5116116;28;20047;-66
2022/09/06 06:36:21;;;;;;;29.65;24.33;;;21.20;99.90;;;21.99;80.24;101342.56;5116450;28;20035;-66
2022/09/06 06:38:54;;;;;;;22.95;19.50;;;21.40;99.90;;;21.94;79.53;101334.69;5115723;28;20404;-66
2022/09/06 06:41:25;;;;;;;22.67;17.08;;;21.40;99.90;;;22.04;79.73;101333.34;5114332;28;20052;-66
2022/09/06 06:43:54;;;;;;;16.15;14.30;;;21.50;99.90;;;21.96;78.74;101322.00;5115741;28;20460;-66
2022/09/06 06:46:24;;;;;;;16.80;15.05;;;21.60;99.90;;;22.51;78.47;101341.09;5114306;28;20393;-66
2022/09/06 06:48:54;;;;;;;17.45;13.68;;;21.90;99.90;;;22.46;76.41;101257.69;5115757;28;20057;-66
2022/09/06 06:51:25;;;;;;;17.13;12.63;;;22.50;99.90;;;22.98;74.87;101346.03;5115709;28;20047;-66
2022/09/06 06:53:56;;;;;;;17.00;13.20;;;22.50;99.90;;;23.33;74.45;101338.06;5115377;28;20438;-66
2022/09/06 06:56:27;;;;;;;12.02;10.43;;;22.80;99.90;;;23.35;73.16;101361.34;5116142;28;20315;-66
2022/09/06 06:58:57;;;;;;;;;;;23.00;99.90;;;23.33;72.55;101348.88;5116125;28;20130;-66
2022/09/06 07:01:27;;;;;;;12.75;9.55;;;22.90;99.90;;;22.88;72.53;101339.31;5115462;28;19955;-66
2022/09/06 07:03:55;;;;;;;12.85;9.15;;;22.60;99.90;;;23.37;73.01;101342.38;5114296;28;20062;-66
2022/09/06 07:06:26;;;;;;;12.55;8.30;;;22.80;99.90;;;22.91;72.13;101335.59;5115116;28;20073;-66
2022/09/06 07:09:18;;;;;;;9.55;8.50;;;22.60;99.90;;;22.97;72.39;101324.53;5115244;28;20071;-66
2022/09/06 07:11:48;;;;;;;12.02;9.73;;;22.50;99.90;;;22.64;75.02;101309.94;5115304;28;20435;-66
2022/09/06 07:14:16;;;;;;;11.27;9.18;;;22.30;99.90;;;22.24;74.13;101333.31;5115133;28;20039;-66
2022/09/06 07:16:45;;;;;;;12.55;10.02;;;22.00;99.90;;;22.17;75.06;101325.56;5114826;28;20047;-66
2022/09/06 07:19:13;;;;;;;13.50;10.10;;;21.80;99.90;;;22.36;74.86;101334.56;5115054;28;20048;-66
2022/09/06 07:22:02;;;;;;;12.50;9.40;;;21.80;99.90;;;22.17;75.09;101326.44;5115501;28;20428;-66
2022/09/06 07:24:34;;;;;;;14.52;10.80;;;21.70;99.90;;;22.05;76.60;101281.16;5115036;28;20040;-66
2022/09/06 07:27:03;;;;;;;13.57;10.00;;;21.80;99.90;;;21.75;76.71;101314.84;5114887;28;20513;-66
2022/09/06 07:29:51;;;;;;;12.82;10.25;;;21.50;99.90;;;21.91;78.28;101317.78;5114984;28;20050;-66
2022/09/06 07:32:19;;;;;;;15.90;10.30;;;21.40;99.90;;;21.98;78.01;101324.63;5114718;28;20036;-66
2022/09/06 07:34:48;;;;;;;11.40;10.15;;;21.60;99.90;;;21.64;77.78;101322.47;5114804;28;20063;-66
2022/09/06 07:37:17;;;;;;;12.25;10.98;;;21.40;99.90;;;22.03;77.48;101320.78;5114756;27;20047;-66
2022/09/06 07:39:47;;;;;;;12.32;11.02;;;21.50;99.90;;;21.67;78.36;101318.78;5114540;28;20051;-66
2022/09/06 07:42:16;;;;;;;13.15;11.80;;;21.30;99.90;;;21.83;78.89;101309.16;5114775;28;20082;-66
2022/09/06 07:44:44;;;;;;;14.13;10.95;;;21.40;99.90;;;21.98;78.68;101313.84;5114240;28;20394;-65
2022/09/06 07:47:14;;;;;;;13.70;10.45;;;21.50;99.90;;;21.88;79.23;101336.75;5114603;28;20400;-65
2022/09/06 07:50:03;;;;;;;13.15;10.30;;;21.40;99.90;;;22.20;78.00;101341.63;5113094;28;20051;-65
2022/09/06 07:52:51;;;;;;;10.73;8.32;;;21.70;99.90;;;22.51;75.99;101341.09;5114356;28;20481;-65
2022/09/06 07:55:41;;;;;;;12.20;9.70;;;22.10;99.90;;;22.56;76.19;101329.16;5114475;28;20606;-65
2022/09/06 07:58:09;;;;;;;11.10;8.80;;;22.20;99.90;;;22.66;76.19;101332.31;5114327;28;20035;-65
2022/09/06 08:00:39;;;;;;;12.68;8.43;;;22.40;99.90;;;22.93;73.90;101344.50;5114207;27;20139;-65
2022/09/06 08:03:08;;;;;;;12.18;9.18;;;22.60;99.90;;;22.86;74.18;101349.31;5114513;28;20079;-65
2022/09/06 08:05:37;;;;;;;11.75;9.32;;;22.50;99.90;;;22.77;73.76;101354.25;5114059;28;20396;-65
2022/09/06 08:08:25;;;;;;;10.10;9.10;;;22.50;99.90;;;22.87;74.79;101352.88;5114045;28;20126;-65
2022/09/06 08:11:15;;;;;;;12.18;9.98;;;22.50;99.90;;;22.66;74.43;101341.28;5114140;28;20057;-65
2022/09/06 08:13:44;;;;;;;10.75;9.63;;;22.50;99.90;;;23.30;74.78;101366.09;5113792;28;20458;-65
2022/09/06 08:16:15;;;;;;;11.38;9.73;;;22.80;99.90;;;23.22;73.47;101357.47;5113912;28;20126;-65
2022/09/06 08:18:44;;;;;;;12.43;10.30;;;22.90;99.90;;;22.89;74.36;101365.38;5112941;28;20047;-65
2022/09/06 08:21:15;;;;;;;22.85;10.98;;;22.60;99.90;;;22.84;75.95;101361.16;5113809;28;20034;-65
2022/09/06 08:23:46;;;;;;;12.82;10.52;;;22.50;99.90;;;22.90;74.90;101363.56;5113714;28;20446;-65
2022/09/06 08:26:17;;;;;;;12.27;10.50;;;22.50;99.90;;;23.04;74.79;101339.47;5113774;28;20443;-65
2022/09/06 08:28:45;;;;;;;12.50;10.45;;;22.70;99.90;;;23.37;74.21;101359.44;5113814;28;20126;-66
2022/09/06 08:31:16;;;;;;;16.00;12.45;;;23.00;99.90;;;23.19;74.45;101361.19;5113633;28;20039;-65
2022/09/06 08:33:46;;;;;;;12.90;10.90;;;22.90;99.90;;;22.85;76.09;101354.78;5113509;28;20057;-66
2022/09/06 08:36:15;;;;;;;13.77;11.40;;;22.50;99.90;;;23.09;75.68;101340.97;5113444;28;20078;-65
2022/09/06 08:38:44;;;;;;;15.45;11.20;;;22.60;99.90;;;23.04;75.81;101348.44;5113396;28;20465;-65
2022/09/06 08:41:25;;;;;;;14.93;11.57;;;22.60;99.90;;;23.41;74.99;101339.44;5113130;28;20039;-65
2022/09/06 08:43:56;;;;;;;13.55;11.18;;;22.90;99.90;;;23.56;74.58;101341.38;5113426;28;20048;-65
2022/09/06 08:46:53;;;;;;;14.65;12.00;;;23.10;99.90;;;23.37;73.21;101335.16;5113282;28;20044;-65
2022/09/06 08:49:22;;;;;;;13.82;10.68;;;23.10;99.90;;;23.68;72.48;101356.09;5113596;28;20067;-65
2022/09/06 08:52:10;;;;;;;13.77;10.48;;;23.20;99.90;;;23.75;71.77;101355.69;5113497;28;20046;-65
2022/09/06 08:54:45;;;;;;;12.85;9.10;;;23.40;99.90;;;23.99;70.98;101346.34;5113267;28;20044;-65
2022/09/06 08:57:32;;;;;;;14.77;9.23;;;23.50;99.90;;;24.37;68.61;101357.00;5113172;28;20047;-65
2022/09/06 09:00:11;;;;;;;12.30;8.18;;;24.00;99.90;;;24.44;67.65;101320.53;5113576;28;20050;-65
2022/09/06 09:02:45;;;;;;;11.18;8.35;;;24.20;99.90;;;24.68;66.80;101354.38;5113142;28;20084;-65
2022/09/06 09:05:26;;;;;;;11.40;8.95;;;24.40;99.90;;;24.93;66.74;101368.34;5112952;28;20044;-66
2022/09/06 09:08:07;;;;;;;12.50;9.30;;;24.60;99.90;;;25.19;66.41;101380.38;5113622;28;20047;-66
2022/09/06 09:10:41;;;;;;;;;;;24.90;99.90;;;24.72;66.80;101350.56;5113638;28;20071;-66
2022/09/06 09:13:22;;;;;;;11.70;7.95;;;24.70;99.90;;;25.36;65.08;101370.34;5113265;28;19924;-66
2022/09/06 09:15:50;;;;;;;9.80;8.75;;;25.00;99.90;;;25.53;64.58;101367.56;5112992;28;20455;-66
2022/09/06 09:18:27;;;;;;;10.55;8.70;;;25.20;99.90;;;25.64;65.18;101365.13;5113204;28;20478;-66
2022/09/06 09:20:57;;;;;;;12.30;9.20;;;25.40;99.90;;;25.90;64.20;101372.56;5113284;28;20058;-66
2022/09/06 09:23:26;;;;;;;10.75;9.60;;;25.50;99.90;;;26.03;63.46;101382.69;5113134;28;20131;-66
2022/09/06 09:26:00;;;;;;;11.10;9.50;;;25.70;99.90;;;26.03;62.52;101386.28;5113483;28;20497;-65
2022/09/06 09:28:30;;;;;;;15.27;8.85;;;25.70;99.90;;;25.94;62.43;101387.69;5116243;28;20105;-65
2022/09/06 09:30:59;;;;;;;11.35;9.65;;;25.60;99.90;;;25.88;62.47;101389.88;5117170;28;20047;-65
2022/09/06 09:33:30;;;;;;;11.00;9.80;;;25.50;99.90;;;26.12;63.04;101390.28;5117277;28;20040;-65
2022/09/06 09:36:01;;;;;;;16.58;10.00;;;25.60;99.90;;;25.88;63.93;101373.59;5116870;28;20098;-65
2022/09/06 09:38:33;;;;;;;11.95;9.50;;;25.60;99.90;;;26.00;62.93;101380.16;5117023;28;20142;-65
2022/09/06 09:41:07;;;;;;;11.63;9.07;;;25.70;99.90;;;26.26;62.35;101385.78;5117197;28;20055;-65
2022/09/06 09:43:41;;;;;;;15.85;8.95;;;25.80;99.90;;;26.27;62.13;101343.22;5117105;28;20039;-65
2022/09/06 09:46:17;;;;;;;13.80;8.73;;;26.10;99.90;;;26.66;61.60;101390.47;5116917;28;20136;-65
2022/09/06 09:49:01;;;;;;;13.15;9.55;;;26.30;99.90;;;26.84;60.31;101395.75;5117006;28;20132;-65
2022/09/06 09:51:34;;;;;;;12.32;8.52;;;26.60;99.90;;;26.99;61.22;101389.34;5116788;28;20051;-65
2022/09/06 09:54:07;;;;;;;13.82;8.98;;;26.70;99.90;;;27.30;60.05;101386.38;5116848;27;20071;-66
2022/09/06 09:56:44;;;;;;;12.32;8.73;;;26.80;99.90;;;27.56;59.09;101402.75;5116595;28;20055;-66
2022/09/06 09:59:29;;;;;;;12.68;8.98;;;27.20;99.90;;;27.42;59.29;101401.91;5116479;28;20104;-66
2022/09/06 10:02:00;;;;;;;12.80;9.40;;;27.10;99.90;;;27.65;59.04;101394.00;5116656;28;20051;-66
2022/09/06 10:04:31;;;;;;;13.63;8.95;;;27.30;99.90;;;27.72;59.53;101393.59;5116947;28;20120;-66
2022/09/06 10:07:18;;;;;;;8.13;7.25;;;27.40;99.90;;;27.90;59.15;101408.63;5116416;28;20381;-66
2022/09/06 10:09:48;;;;;;;12.85;8.93;;;27.50;99.90;;;28.09;58.18;101412.75;5116459;28;20455;-66
2022/09/06 10:12:20;;;;;;;13.73;9.65;;;27.70;99.90;;;28.11;57.32;101404.47;5116801;28;20135;-66
2022/09/06 10:14:50;;;;;;;13.27;8.93;;;27.80;99.90;;;28.41;58.74;101407.81;5116380;28;20052;-66
2022/09/06 10:17:23;;;;;;;10.65;9.07;;;28.00;99.90;;;27.81;56.86;101265.13;5116465;28;20047;-66
2022/09/06 10:19:52;;;;;;;12.45;10.18;;;28.30;99.90;;;28.78;56.95;101408.84;5116352;28;20439;-65
2022/09/06 10:22:30;;;;;;;12.95;9.10;;;28.40;99.90;;;28.53;56.19;101412.41;5116175;28;20050;-66
2022/09/06 10:25:44;;;;;;;12.30;8.27;;;28.30;99.90;;;28.64;56.65;101428.91;5114776;28;20040;-66
2022/09/06 10:28:37;;;;;;;18.30;11.95;;;28.20;99.90;;;28.54;56.68;101427.78;5115754;28;20046;-66